x

Half Moon Bay - 24nm Ssw Of San Francisco, Ca (46012) Wave Buoy

3:50pm - Mon 24th Nov 2014 All times are PST. -8 hours from GMT.

  • Sig Wave height 8.5ft
  • Swell Direction
  • Peak Period 13s
  • Average Period 10s
  • Wind
    11mph, 13mph gusts
  • Sea Temp 59°f
  • Air Temp 59°f
  • Sea Pressure 1027.2mb
  • Half Moon Bay - 24nm Ssw Of San Francisco, Ca
  • Half Moon Bay - 24nm Ssw Of San Francisco, Ca

More Historic Weather Station data

Upgrade to MSW Pro to gain access to the past 30 days of data for over 8000 Wavebouys and Weather Stations around the globe.

Join Pro

Comparision Forecast

View Surf forecast
   
Mon 11/24 3:50pm 8.5ft 13s 10s 11 13 mph 1027.2mb 59f 59f
2:50pm 9ft 13s 10s 11 13 mph 1027.3mb 59f 59f
1:50pm 9ft 14s 10s 9 11 mph 1027.4mb 59f 58f
12:50pm 9ft 14s 10s 11
mph
1027.7mb 59f 57f
11:50am 9ft 13s 10s 11 13 mph 1028.4mb 59f 58f
10:50am 9.5ft 15s 10s 9 11 mph 1028.9mb 58f 58f
9:50am 9ft 13s 9s 11 13 mph 1028.8mb 58f 58f
8:50am 8.5ft 13s 9s 11 13 mph 1028.5mb 58f 58f
7:50am 10ft 13s 9s 11 13 mph 1028mb 58f 58f
6:50am 8ft 13s  -  11 13 mph 1027.6mb 58f 57f
5:50am 9ft 13s 9s 11 13 mph 1026.8mb 58f 58f
4:50am 10.5ft 14s 9s 11 13 mph 1026.5mb 58f 58f
3:50am 9ft 13s 8s 16 18 mph 1026.1mb 58f 58f
2:50am 9.5ft 14s 9s 11 13 mph 1026mb 59f 58f
1:50am 10ft 14s 9s 7 9 mph 1025.9mb 59f 58f
12:50am 11ft 13s 9s 11 13 mph 1025.9mb 59f 58f
Sun 11/23 11:50pm 10ft 13s 8s 13 16 mph 1026.4mb 59f 58f
10:50pm 11ft 14s 9s 16 18 mph 1026.4mb 59f 59f
9:50pm 10ft 13s 9s 16 20 mph 1026mb 59f 59f
8:50pm 10ft 14s 9s 13 16 mph 1025.8mb 59f 59f
7:50pm 10ft 14s 9s 18 20 mph 1025.6mb 59f 59f
6:50pm 11ft 14s 9s 18 22 mph 1025.5mb 59f 59f
5:50pm 9.5ft 14s 9s 18 22 mph 1025.2mb 59f 59f
4:50pm 9.5ft 14s 9s 18 22 mph 1025.2mb 59f 59f
3:50pm 9ft 13s 9s 16 20 mph 1024.9mb 59f 59f
2:50pm 9.5ft 14s 9s 13 16 mph 1024.9mb 59f 59f
1:50pm 9ft 14s 9s 11 16 mph 1024.9mb 59f 59f
12:50pm 9ft 14s 8s 11 13 mph 1025.4mb 59f 59f
11:50am 10.5ft 14s 9s 13 16 mph 1025.7mb 59f 59f
10:50am 11ft 13s 9s 16 18 mph 1026.4mb 58f 59f
9:50am 11.5ft 14s 9s 13 18 mph 1026.6mb 59f 59f
8:50am 11ft 14s 9s 16 20 mph 1025.9mb 59f 59f
7:50am 10.5ft 14s  -  16 20 mph 1025.7mb 59f 58f
6:50am 11ft 15s 9s 11 13 mph 1024.9mb 59f 58f
5:50am 10.5ft 15s 9s 13 16 mph 1025.3mb 59f 58f
4:50am 11.5ft 15s 9s 13 18 mph 1025.1mb 59f 58f
3:50am 11ft 14s 9s 16 20 mph 1024.5mb 59f 58f
2:50am 11ft 15s 8s 16 20 mph 1024.2mb 59f 59f
1:50am 11ft 15s 8s 18 22 mph 1023.4mb 59f 59f
12:50am 10.5ft 15s 8s 18 20 mph 1023.7mb 59f 59f
Sat 11/22 11:50pm 11ft 13s 8s 20 25 mph 1023.3mb 59f 59f
10:50pm 10.5ft 15s 8s 20 25 mph 1023.5mb 59f 60f
9:50pm 11ft 13s 8s 22 27 mph 1023.1mb 59f 60f
8:50pm 10.5ft 14s 7s 22 27 mph 1022.9mb 59f 60f
7:50pm 10.5ft 11s 7s 22 29 mph 1022.2mb 59f 60f
6:50pm 9.5ft 13s 7s 22 27 mph 1021.7mb 59f 60f
5:50pm 9ft 12s 7s 20 25 mph 1021.4mb 60f 61f
4:50pm 9ft 11s 7s 20 27 mph 1021.1mb 60f 61f
3:50pm 8ft 10s 7s 18 22 mph 1020.9mb 60f 61f
2:50pm 8ft 11s 7s 20 22 mph 1020.5mb 60f 62f
1:50pm 7.5ft 9s 7s 18 22 mph 1019.9mb 60f 62f
12:50pm 7ft 11s 7s 16 20 mph 1019.7mb 61f 62f
11:50am 7.5ft 10s 7s 16 18 mph 1019.8mb 61f 62f
10:50am 8ft 10s 7s 16 18 mph 1019.6mb 60f 61f
9:50am 7.5ft 11s 7s 18 22 mph 1019.2mb 60f 62f
8:50am 7.5ft 12s 7s 18 20 mph 1018.5mb 60f 62f
7:50am 7ft 12s 7s 16 20 mph 1018mb 60f 62f
6:50am 8ft 11s 7s 16 18 mph 1018.1mb 60f 62f
5:50am 7.5ft 10s 7s 13 16 mph 1018mb 60f 62f
4:50am 8ft 11s 8s 13 16 mph 1017.8mb 60f 61f
3:50am 7.5ft 11s 7s 13 16 mph 1018.1mb 60f 61f
2:50am 7ft 12s 8s 13 18 mph 1018.4mb 60f 61f
1:50am 7ft 12s 8s 16 18 mph 1018.9mb 60f 60f
12:50am 7ft 11s 8s 16 18 mph 1019.2mb 61f 60f
Fri 11/21 11:50pm 6.5ft 11s 9s 13 16 mph 1019.6mb 61f 61f
10:50pm 7ft 13s 9s 13 16 mph 1019.5mb 61f 61f
9:50pm 7ft 12s 9s 11
mph
1019.4mb 60f 60f
8:50pm 7.5ft 13s 9s 9 11 mph 1019.6mb 60f 60f
6:50pm 8ft 12s 9s 9 11 mph 1019.2mb 60f 60f
5:50pm 8ft 13s 9s 7 9 mph 1019.1mb 60f 60f
4:50pm 8.5ft 12s 9s 7 9 mph 1018.9mb 61f 60f
3:50pm 10ft 13s 9s 4 7 mph 1018.7mb 61f 60f
2:50pm 9.5ft 12s 9s 4 7 mph 1018.5mb 61f 59f
1:50pm 8.5ft 11s 9s 7 9 mph 1018.1mb 61f 59f
12:50pm 7ft 12s 8s 4 7 mph 1018.4mb 61f 59f
11:50am 9ft 14s 9s 4 7 mph 1018.8mb 61f 58f
10:50am 8ft 10s 9s 7 9 mph 1019mb 61f 58f
9:50am 8.5ft 10s 9s 4 9 mph 1018.8mb 61f 59f
8:50am 8ft 10s 8s 2 4 mph 1018.6mb 61f 59f
7:50am 7.5ft 14s 8s 2 4 mph 1018.1mb 61f 59f
6:50am 7ft 14s 8s 4 7 mph 1017.6mb 61f 58f
5:50am 7ft 10s 8s 2 4 mph 1017.2mb 61f 58f
4:50am 7ft 10s 8s 4 7 mph 1017mb 61f 58f
3:50am 6ft 10s 8s 7
mph
1016.9mb 61f 59f
2:50am 6ft 11s 7s 4 7 mph 1016.9mb 61f 59f
1:50am 6ft 10s 7s 4 7 mph 1016.4mb 61f 59f
12:50am 6.5ft 10s 8s 9 11 mph 1016.5mb 61f 60f